sensor_id;sensor_type;location;lat;lon;timestamp;temperature;humidity
76878;DHT22;65843;50.692;12.844;2023-11-18T00:00:52;10.30;68.70
76878;DHT22;65843;50.692;12.844;2023-11-18T00:01:52;10.30;68.80
76878;DHT22;65843;50.692;12.844;2023-11-18T00:02:53;10.30;68.70
76878;DHT22;65843;50.692;12.844;2023-11-18T00:03:54;10.30;68.70
76878;DHT22;65843;50.692;12.844;2023-11-18T00:04:56;10.30;68.60
76878;DHT22;65843;50.692;12.844;2023-11-18T00:05:57;10.30;68.60
76878;DHT22;65843;50.692;12.844;2023-11-18T00:06:58;10.30;68.60
76878;DHT22;65843;50.692;12.844;2023-11-18T00:08:00;10.30;68.70
76878;DHT22;65843;50.692;12.844;2023-11-18T00:09:01;10.30;68.70
76878;DHT22;65843;50.692;12.844;2023-11-18T00:10:02;10.30;69.00
76878;DHT22;65843;50.692;12.844;2023-11-18T00:11:04;10.30;69.10
76878;DHT22;65843;50.692;12.844;2023-11-18T00:12:05;10.30;69.00
76878;DHT22;65843;50.692;12.844;2023-11-18T00:13:06;10.30;69.00
76878;DHT22;65843;50.692;12.844;2023-11-18T00:14:07;10.30;69.10
76878;DHT22;65843;50.692;12.844;2023-11-18T00:15:08;10.30;68.80
76878;DHT22;65843;50.692;12.844;2023-11-18T00:16:11;10.40;68.90
76878;DHT22;65843;50.692;12.844;2023-11-18T00:17:16;10.40;68.90
76878;DHT22;65843;50.692;12.844;2023-11-18T00:18:17;10.40;68.70
76878;DHT22;65843;50.692;12.844;2023-11-18T00:19:18;10.40;68.70
76878;DHT22;65843;50.692;12.844;2023-11-18T00:20:19;10.40;68.70
76878;DHT22;65843;50.692;12.844;2023-11-18T00:21:21;10.40;68.60
76878;DHT22;65843;50.692;12.844;2023-11-18T00:22:21;10.40;68.70
76878;DHT22;65843;50.692;12.844;2023-11-18T00:23:22;10.40;68.60
76878;DHT22;65843;50.692;12.844;2023-11-18T00:24:23;10.40;68.60
76878;DHT22;65843;50.692;12.844;2023-11-18T00:25:24;10.40;68.60
76878;DHT22;65843;50.692;12.844;2023-11-18T00:26:25;10.40;68.60
76878;DHT22;65843;50.692;12.844;2023-11-18T00:27:26;10.40;68.80
76878;DHT22;65843;50.692;12.844;2023-11-18T00:28:27;10.40;68.70
76878;DHT22;65843;50.692;12.844;2023-11-18T00:29:28;10.40;68.60
76878;DHT22;65843;50.692;12.844;2023-11-18T00:30:29;10.40;68.70
76878;DHT22;65843;50.692;12.844;2023-11-18T00:31:30;10.40;68.60
76878;DHT22;65843;50.692;12.844;2023-11-18T00:32:31;10.40;68.60
76878;DHT22;65843;50.692;12.844;2023-11-18T00:33:32;10.30;68.60
76878;DHT22;65843;50.692;12.844;2023-11-18T00:34:33;10.40;68.60
76878;DHT22;65843;50.692;12.844;2023-11-18T00:35:34;10.30;68.60
76878;DHT22;65843;50.692;12.844;2023-11-18T00:36:35;10.30;68.60
76878;DHT22;65843;50.692;12.844;2023-11-18T00:37:36;10.30;68.70
76878;DHT22;65843;50.692;12.844;2023-11-18T00:38:37;10.30;68.60
76878;DHT22;65843;50.692;12.844;2023-11-18T00:39:38;10.30;68.60
76878;DHT22;65843;50.692;12.844;2023-11-18T00:40:39;10.30;68.60
76878;DHT22;65843;50.692;12.844;2023-11-18T00:41:40;10.30;68.20
76878;DHT22;65843;50.692;12.844;2023-11-18T00:42:41;10.30;68.70
76878;DHT22;65843;50.692;12.844;2023-11-18T00:43:42;10.30;68.70
76878;DHT22;65843;50.692;12.844;2023-11-18T00:44:43;10.30;68.70
76878;DHT22;65843;50.692;12.844;2023-11-18T00:45:44;10.20;68.90
76878;DHT22;65843;50.692;12.844;2023-11-18T00:46:44;10.30;69.00
76878;DHT22;65843;50.692;12.844;2023-11-18T00:47:45;10.30;68.70
76878;DHT22;65843;50.692;12.844;2023-11-18T00:48:46;10.30;68.70
76878;DHT22;65843;50.692;12.844;2023-11-18T00:49:47;10.30;68.80
76878;DHT22;65843;50.692;12.844;2023-11-18T00:50:50;10.30;68.80
76878;DHT22;65843;50.692;12.844;2023-11-18T00:51:51;10.30;68.90
76878;DHT22;65843;50.692;12.844;2023-11-18T00:52:52;10.30;68.70
76878;DHT22;65843;50.692;12.844;2023-11-18T00:53:53;10.20;68.40
76878;DHT22;65843;50.692;12.844;2023-11-18T00:54:54;10.20;68.80
76878;DHT22;65843;50.692;12.844;2023-11-18T00:55:55;10.20;68.70
76878;DHT22;65843;50.692;12.844;2023-11-18T00:56:56;10.20;68.70
76878;DHT22;65843;50.692;12.844;2023-11-18T00:57:57;10.20;69.00
76878;DHT22;65843;50.692;12.844;2023-11-18T00:58:58;10.20;68.70
76878;DHT22;65843;50.692;12.844;2023-11-18T00:59:59;10.20;69.00
76878;DHT22;65843;50.692;12.844;2023-11-18T01:01:00;10.20;69.10
76878;DHT22;65843;50.692;12.844;2023-11-18T01:02:01;10.20;69.10
76878;DHT22;65843;50.692;12.844;2023-11-18T01:03:05;10.30;69.20
76878;DHT22;65843;50.692;12.844;2023-11-18T01:04:06;10.30;69.10
76878;DHT22;65843;50.692;12.844;2023-11-18T01:05:07;10.30;69.00
76878;DHT22;65843;50.692;12.844;2023-11-18T01:06:10;10.30;68.70
76878;DHT22;65843;50.692;12.844;2023-11-18T01:07:11;10.30;68.80
76878;DHT22;65843;50.692;12.844;2023-11-18T01:08:12;10.30;68.70
76878;DHT22;65843;50.692;12.844;2023-11-18T01:09:13;10.40;68.60
76878;DHT22;65843;50.692;12.844;2023-11-18T01:10:16;10.30;68.60
76878;DHT22;65843;50.692;12.844;2023-11-18T01:11:19;10.30;68.60
76878;DHT22;65843;50.692;12.844;2023-11-18T01:12:20;10.30;68.50
76878;DHT22;65843;50.692;12.844;2023-11-18T01:13:21;10.30;68.30
76878;DHT22;65843;50.692;12.844;2023-11-18T01:14:22;10.30;68.40
76878;DHT22;65843;50.692;12.844;2023-11-18T01:15:24;10.30;68.20
76878;DHT22;65843;50.692;12.844;2023-11-18T01:16:24;10.30;68.50
76878;DHT22;65843;50.692;12.844;2023-11-18T01:17:25;10.30;68.20
76878;DHT22;65843;50.692;12.844;2023-11-18T01:18:26;10.30;68.20
76878;DHT22;65843;50.692;12.844;2023-11-18T01:19:27;10.30;68.40
76878;DHT22;65843;50.692;12.844;2023-11-18T01:20:29;10.20;68.60
76878;DHT22;65843;50.692;12.844;2023-11-18T01:21:29;10.30;68.60
76878;DHT22;65843;50.692;12.844;2023-11-18T01:22:30;10.30;68.60
76878;DHT22;65843;50.692;12.844;2023-11-18T01:23:31;10.30;68.40
76878;DHT22;65843;50.692;12.844;2023-11-18T01:24:32;10.20;68.30
76878;DHT22;65843;50.692;12.844;2023-11-18T01:25:34;10.20;68.30
76878;DHT22;65843;50.692;12.844;2023-11-18T01:26:35;10.20;68.50
76878;DHT22;65843;50.692;12.844;2023-11-18T01:27:37;10.20;68.60
76878;DHT22;65843;50.692;12.844;2023-11-18T01:28:38;10.20;68.70
76878;DHT22;65843;50.692;12.844;2023-11-18T01:29:43;10.20;68.70
76878;DHT22;65843;50.692;12.844;2023-11-18T01:30:45;10.20;68.70
76878;DHT22;65843;50.692;12.844;2023-11-18T01:31:46;10.20;68.80
76878;DHT22;65843;50.692;12.844;2023-11-18T01:32:47;10.20;68.70
76878;DHT22;65843;50.692;12.844;2023-11-18T01:33:48;10.20;68.90
76878;DHT22;65843;50.692;12.844;2023-11-18T01:34:50;10.20;69.00
76878;DHT22;65843;50.692;12.844;2023-11-18T01:35:52;10.20;69.10
76878;DHT22;65843;50.692;12.844;2023-11-18T01:36:53;10.20;69.00
76878;DHT22;65843;50.692;12.844;2023-11-18T01:37:54;10.20;68.90
76878;DHT22;65843;50.692;12.844;2023-11-18T01:38:58;10.20;68.80
76878;DHT22;65843;50.692;12.844;2023-11-18T01:39:59;10.20;68.50
76878;DHT22;65843;50.692;12.844;2023-11-18T01:41:00;10.20;68.60
76878;DHT22;65843;50.692;12.844;2023-11-18T01:42:01;10.20;68.70
76878;DHT22;65843;50.692;12.844;2023-11-18T01:43:03;10.20;68.50
76878;DHT22;65843;50.692;12.844;2023-11-18T01:44:12;10.20;68.50
76878;DHT22;65843;50.692;12.844;2023-11-18T01:45:16;10.20;68.60
76878;DHT22;65843;50.692;12.844;2023-11-18T01:46:20;10.20;68.70
76878;DHT22;65843;50.692;12.844;2023-11-18T01:47:24;10.20;68.90
76878;DHT22;65843;50.692;12.844;2023-11-18T01:48:25;10.20;69.00
76878;DHT22;65843;50.692;12.844;2023-11-18T01:49:27;10.20;69.00
76878;DHT22;65843;50.692;12.844;2023-11-18T01:50:28;10.20;69.10
76878;DHT22;65843;50.692;12.844;2023-11-18T01:51:30;10.20;69.20
76878;DHT22;65843;50.692;12.844;2023-11-18T01:52:31;10.30;69.20
76878;DHT22;65843;50.692;12.844;2023-11-18T01:53:32;10.30;69.10
76878;DHT22;65843;50.692;12.844;2023-11-18T01:54:36;10.30;68.90
76878;DHT22;65843;50.692;12.844;2023-11-18T01:55:38;10.30;68.80
76878;DHT22;65843;50.692;12.844;2023-11-18T01:56:41;10.30;68.50
76878;DHT22;65843;50.692;12.844;2023-11-18T01:57:44;10.30;68.30
76878;DHT22;65843;50.692;12.844;2023-11-18T01:58:46;10.30;68.40
76878;DHT22;65843;50.692;12.844;2023-11-18T01:59:47;10.30;68.50
76878;DHT22;65843;50.692;12.844;2023-11-18T02:00:48;10.30;68.40
76878;DHT22;65843;50.692;12.844;2023-11-18T02:01:52;10.30;68.40
76878;DHT22;65843;50.692;12.844;2023-11-18T02:02:54;10.30;68.50
76878;DHT22;65843;50.692;12.844;2023-11-18T02:03:55;10.30;68.40
76878;DHT22;65843;50.692;12.844;2023-11-18T02:04:56;10.30;68.50
76878;DHT22;65843;50.692;12.844;2023-11-18T02:05:57;10.30;68.90
76878;DHT22;65843;50.692;12.844;2023-11-18T02:06:58;10.30;68.80
76878;DHT22;65843;50.692;12.844;2023-11-18T02:07:59;10.30;68.80
76878;DHT22;65843;50.692;12.844;2023-11-18T02:09:01;10.30;68.80
76878;DHT22;65843;50.692;12.844;2023-11-18T02:10:04;10.30;69.00
76878;DHT22;65843;50.692;12.844;2023-11-18T02:13:35;10.30;68.80
76878;DHT22;65843;50.692;12.844;2023-11-18T02:14:38;10.30;68.70
76878;DHT22;65843;50.692;12.844;2023-11-18T02:15:40;10.30;68.60
76878;DHT22;65843;50.692;12.844;2023-11-18T02:16:41;10.30;68.70
76878;DHT22;65843;50.692;12.844;2023-11-18T02:17:43;10.30;68.70
76878;DHT22;65843;50.692;12.844;2023-11-18T02:18:45;10.30;68.70
76878;DHT22;65843;50.692;12.844;2023-11-18T02:19:47;10.30;68.60
76878;DHT22;65843;50.692;12.844;2023-11-18T02:20:48;10.30;68.50
76878;DHT22;65843;50.692;12.844;2023-11-18T02:21:50;10.30;68.70
76878;DHT22;65843;50.692;12.844;2023-11-18T02:22:52;10.20;68.70
76878;DHT22;65843;50.692;12.844;2023-11-18T02:23:53;10.20;68.80
76878;DHT22;65843;50.692;12.844;2023-11-18T02:24:54;10.20;68.90
76878;DHT22;65843;50.692;12.844;2023-11-18T02:25:55;10.30;68.90
76878;DHT22;65843;50.692;12.844;2023-11-18T02:26:57;10.20;68.80
76878;DHT22;65843;50.692;12.844;2023-11-18T02:27:58;10.20;68.70
76878;DHT22;65843;50.692;12.844;2023-11-18T02:28:59;10.20;68.70
76878;DHT22;65843;50.692;12.844;2023-11-18T02:30:00;10.20;68.70
76878;DHT22;65843;50.692;12.844;2023-11-18T02:31:05;10.20;68.70
76878;DHT22;65843;50.692;12.844;2023-11-18T02:33:36;10.20;68.60
76878;DHT22;65843;50.692;12.844;2023-11-18T02:34:43;10.20;68.70
76878;DHT22;65843;50.692;12.844;2023-11-18T02:35:51;10.20;68.70
76878;DHT22;65843;50.692;12.844;2023-11-18T02:36:53;10.20;68.60
76878;DHT22;65843;50.692;12.844;2023-11-18T02:37:54;10.20;68.70
76878;DHT22;65843;50.692;12.844;2023-11-18T02:38:55;10.30;68.80
76878;DHT22;65843;50.692;12.844;2023-11-18T02:39:59;10.30;68.90
76878;DHT22;65843;50.692;12.844;2023-11-18T02:41:06;10.30;68.90
76878;DHT22;65843;50.692;12.844;2023-11-18T02:42:09;10.30;69.00
76878;DHT22;65843;50.692;12.844;2023-11-18T02:43:13;10.30;68.90
76878;DHT22;65843;50.692;12.844;2023-11-18T02:44:15;10.30;68.80
76878;DHT22;65843;50.692;12.844;2023-11-18T02:45:18;10.30;68.70
76878;DHT22;65843;50.692;12.844;2023-11-18T02:46:19;10.30;68.70
76878;DHT22;65843;50.692;12.844;2023-11-18T02:47:21;10.30;68.70
76878;DHT22;65843;50.692;12.844;2023-11-18T02:48:22;10.30;68.50
76878;DHT22;65843;50.692;12.844;2023-11-18T02:49:24;10.30;68.50
76878;DHT22;65843;50.692;12.844;2023-11-18T02:50:25;10.30;68.50
76878;DHT22;65843;50.692;12.844;2023-11-18T02:51:26;10.30;68.60
76878;DHT22;65843;50.692;12.844;2023-11-18T02:52:27;10.30;68.60
76878;DHT22;65843;50.692;12.844;2023-11-18T02:53:28;10.30;68.40
76878;DHT22;65843;50.692;12.844;2023-11-18T02:54:29;10.30;68.60
76878;DHT22;65843;50.692;12.844;2023-11-18T02:55:30;10.30;68.80
76878;DHT22;65843;50.692;12.844;2023-11-18T02:56:31;10.30;68.70
76878;DHT22;65843;50.692;12.844;2023-11-18T02:57:32;10.30;68.80
76878;DHT22;65843;50.692;12.844;2023-11-18T02:58:33;10.30;68.90
76878;DHT22;65843;50.692;12.844;2023-11-18T02:59:34;10.30;69.00
76878;DHT22;65843;50.692;12.844;2023-11-18T03:00:35;10.30;69.00
76878;DHT22;65843;50.692;12.844;2023-11-18T03:01:36;10.30;69.00
76878;DHT22;65843;50.692;12.844;2023-11-18T03:02:39;10.30;68.90
76878;DHT22;65843;50.692;12.844;2023-11-18T03:03:40;10.30;68.90
76878;DHT22;65843;50.692;12.844;2023-11-18T03:04:43;10.20;68.80
76878;DHT22;65843;50.692;12.844;2023-11-18T03:05:45;10.20;68.80
76878;DHT22;65843;50.692;12.844;2023-11-18T03:06:46;10.20;68.80
76878;DHT22;65843;50.692;12.844;2023-11-18T03:07:47;10.20;68.70
76878;DHT22;65843;50.692;12.844;2023-11-18T03:08:50;10.20;68.60
76878;DHT22;65843;50.692;12.844;2023-11-18T03:09:52;10.20;68.70
76878;DHT22;65843;50.692;12.844;2023-11-18T03:10:56;10.20;68.70
76878;DHT22;65843;50.692;12.844;2023-11-18T03:11:58;10.20;68.70
76878;DHT22;65843;50.692;12.844;2023-11-18T03:13:01;10.20;68.90
76878;DHT22;65843;50.692;12.844;2023-11-18T03:14:02;10.20;69.00
76878;DHT22;65843;50.692;12.844;2023-11-18T03:15:05;10.20;69.20
76878;DHT22;65843;50.692;12.844;2023-11-18T03:16:09;10.20;69.10
76878;DHT22;65843;50.692;12.844;2023-11-18T03:17:12;10.20;68.90
76878;DHT22;65843;50.692;12.844;2023-11-18T03:18:14;10.20;68.80
76878;DHT22;65843;50.692;12.844;2023-11-18T03:19:16;10.20;68.80
76878;DHT22;65843;50.692;12.844;2023-11-18T03:20:17;10.20;68.80
76878;DHT22;65843;50.692;12.844;2023-11-18T03:21:18;10.20;68.90
76878;DHT22;65843;50.692;12.844;2023-11-18T03:22:22;10.20;68.90
76878;DHT22;65843;50.692;12.844;2023-11-18T03:23:23;10.20;68.70
76878;DHT22;65843;50.692;12.844;2023-11-18T03:24:24;10.20;69.00
76878;DHT22;65843;50.692;12.844;2023-11-18T03:25:25;10.20;69.00
76878;DHT22;65843;50.692;12.844;2023-11-18T03:26:26;10.20;68.90
76878;DHT22;65843;50.692;12.844;2023-11-18T03:27:27;10.20;68.90
76878;DHT22;65843;50.692;12.844;2023-11-18T03:28:28;10.20;69.00
76878;DHT22;65843;50.692;12.844;2023-11-18T03:29:29;10.30;69.10
76878;DHT22;65843;50.692;12.844;2023-11-18T03:30:30;10.30;69.10
76878;DHT22;65843;50.692;12.844;2023-11-18T03:31:31;10.30;69.10
76878;DHT22;65843;50.692;12.844;2023-11-18T03:32:32;10.30;69.00
76878;DHT22;65843;50.692;12.844;2023-11-18T03:33:33;10.30;68.80
76878;DHT22;65843;50.692;12.844;2023-11-18T03:34:34;10.30;68.60
76878;DHT22;65843;50.692;12.844;2023-11-18T03:35:35;10.30;68.60
76878;DHT22;65843;50.692;12.844;2023-11-18T03:36:36;10.30;68.60
76878;DHT22;65843;50.692;12.844;2023-11-18T03:37:38;10.30;68.60
76878;DHT22;65843;50.692;12.844;2023-11-18T03:38:42;10.30;68.50
76878;DHT22;65843;50.692;12.844;2023-11-18T03:39:44;10.30;68.60
76878;DHT22;65843;50.692;12.844;2023-11-18T03:40:45;10.30;68.40
76878;DHT22;65843;50.692;12.844;2023-11-18T03:41:47;10.30;68.40
76878;DHT22;65843;50.692;12.844;2023-11-18T03:42:48;10.30;68.50
76878;DHT22;65843;50.692;12.844;2023-11-18T03:43:49;10.30;68.60
76878;DHT22;65843;50.692;12.844;2023-11-18T03:44:50;10.30;68.60
76878;DHT22;65843;50.692;12.844;2023-11-18T03:45:51;10.20;68.50
76878;DHT22;65843;50.692;12.844;2023-11-18T03:46:57;10.20;68.80
76878;DHT22;65843;50.692;12.844;2023-11-18T03:47:58;10.20;68.90
76878;DHT22;65843;50.692;12.844;2023-11-18T03:49:01;10.20;68.60
76878;DHT22;65843;50.692;12.844;2023-11-18T03:50:02;10.20;68.70
76878;DHT22;65843;50.692;12.844;2023-11-18T03:51:03;10.20;68.50
76878;DHT22;65843;50.692;12.844;2023-11-18T03:52:04;10.20;68.60
76878;DHT22;65843;50.692;12.844;2023-11-18T03:53:06;10.20;68.60
76878;DHT22;65843;50.692;12.844;2023-11-18T03:54:07;10.20;68.70
76878;DHT22;65843;50.692;12.844;2023-11-18T03:55:11;10.20;68.70
76878;DHT22;65843;50.692;12.844;2023-11-18T03:56:16;10.20;68.70
76878;DHT22;65843;50.692;12.844;2023-11-18T03:57:18;10.20;68.70
76878;DHT22;65843;50.692;12.844;2023-11-18T03:58:19;10.20;68.70
76878;DHT22;65843;50.692;12.844;2023-11-18T03:59:20;10.20;68.90
76878;DHT22;65843;50.692;12.844;2023-11-18T04:00:21;10.20;68.70
76878;DHT22;65843;50.692;12.844;2023-11-18T04:01:22;10.20;69.00
76878;DHT22;65843;50.692;12.844;2023-11-18T04:02:24;10.20;69.00
76878;DHT22;65843;50.692;12.844;2023-11-18T04:03:25;10.20;69.10
76878;DHT22;65843;50.692;12.844;2023-11-18T04:04:26;10.20;69.20
76878;DHT22;65843;50.692;12.844;2023-11-18T04:05:28;10.20;69.30
76878;DHT22;65843;50.692;12.844;2023-11-18T04:06:29;10.20;69.00
76878;DHT22;65843;50.692;12.844;2023-11-18T04:07:30;10.20;68.90
76878;DHT22;65843;50.692;12.844;2023-11-18T04:08:31;10.20;69.00
76878;DHT22;65843;50.692;12.844;2023-11-18T04:09:33;10.20;68.80
76878;DHT22;65843;50.692;12.844;2023-11-18T04:10:35;10.10;68.80
76878;DHT22;65843;50.692;12.844;2023-11-18T04:11:36;10.20;68.90
76878;DHT22;65843;50.692;12.844;2023-11-18T04:12:37;10.10;69.00
76878;DHT22;65843;50.692;12.844;2023-11-18T04:13:38;10.10;69.10
76878;DHT22;65843;50.692;12.844;2023-11-18T04:14:39;10.10;69.10
76878;DHT22;65843;50.692;12.844;2023-11-18T04:15:40;10.10;68.90
76878;DHT22;65843;50.692;12.844;2023-11-18T04:16:41;10.20;69.00
76878;DHT22;65843;50.692;12.844;2023-11-18T04:17:42;10.20;69.20
76878;DHT22;65843;50.692;12.844;2023-11-18T04:18:45;10.20;69.30
76878;DHT22;65843;50.692;12.844;2023-11-18T04:19:46;10.20;69.30
76878;DHT22;65843;50.692;12.844;2023-11-18T04:20:47;10.20;69.30
76878;DHT22;65843;50.692;12.844;2023-11-18T04:21:48;10.30;69.20
76878;DHT22;65843;50.692;12.844;2023-11-18T04:22:50;10.30;69.10
76878;DHT22;65843;50.692;12.844;2023-11-18T04:23:50;10.30;68.90
76878;DHT22;65843;50.692;12.844;2023-11-18T04:24:51;10.30;68.80
76878;DHT22;65843;50.692;12.844;2023-11-18T04:25:52;10.30;68.70
76878;DHT22;65843;50.692;12.844;2023-11-18T04:26:53;10.30;68.70
76878;DHT22;65843;50.692;12.844;2023-11-18T04:27:55;10.30;68.60
76878;DHT22;65843;50.692;12.844;2023-11-18T04:28:56;10.30;68.60
76878;DHT22;65843;50.692;12.844;2023-11-18T04:29:57;10.30;68.60
76878;DHT22;65843;50.692;12.844;2023-11-18T04:30:59;10.30;68.50
76878;DHT22;65843;50.692;12.844;2023-11-18T04:32:00;10.30;68.60
76878;DHT22;65843;50.692;12.844;2023-11-18T04:33:01;10.30;68.70
76878;DHT22;65843;50.692;12.844;2023-11-18T04:34:03;10.30;68.70
76878;DHT22;65843;50.692;12.844;2023-11-18T04:35:05;10.30;69.00
76878;DHT22;65843;50.692;12.844;2023-11-18T04:36:10;10.30;68.80
76878;DHT22;65843;50.692;12.844;2023-11-18T04:37:11;10.30;69.00
76878;DHT22;65843;50.692;12.844;2023-11-18T04:38:12;10.20;68.80
76878;DHT22;65843;50.692;12.844;2023-11-18T04:39:13;10.30;68.90
76878;DHT22;65843;50.692;12.844;2023-11-18T04:40:16;10.30;68.80
76878;DHT22;65843;50.692;12.844;2023-11-18T04:41:17;10.20;68.60
76878;DHT22;65843;50.692;12.844;2023-11-18T04:42:18;10.20;68.50
76878;DHT22;65843;50.692;12.844;2023-11-18T04:43:19;10.20;68.60
76878;DHT22;65843;50.692;12.844;2023-11-18T04:44:20;10.20;68.70
76878;DHT22;65843;50.692;12.844;2023-11-18T04:45:21;10.20;68.70
76878;DHT22;65843;50.692;12.844;2023-11-18T04:46:22;10.20;68.80
76878;DHT22;65843;50.692;12.844;2023-11-18T04:47:23;10.20;68.90
76878;DHT22;65843;50.692;12.844;2023-11-18T04:48:25;10.20;68.70
76878;DHT22;65843;50.692;12.844;2023-11-18T04:49:26;10.20;68.70
76878;DHT22;65843;50.692;12.844;2023-11-18T04:50:27;10.20;68.80
76878;DHT22;65843;50.692;12.844;2023-11-18T04:51:29;10.20;68.80
76878;DHT22;65843;50.692;12.844;2023-11-18T04:52:30;10.20;68.90
76878;DHT22;65843;50.692;12.844;2023-11-18T04:53:33;10.20;69.10
76878;DHT22;65843;50.692;12.844;2023-11-18T04:54:35;10.20;69.00
76878;DHT22;65843;50.692;12.844;2023-11-18T04:55:36;10.20;69.10
76878;DHT22;65843;50.692;12.844;2023-11-18T04:56:37;10.20;68.90
76878;DHT22;65843;50.692;12.844;2023-11-18T04:57:38;10.20;68.70
76878;DHT22;65843;50.692;12.844;2023-11-18T04:58:40;10.20;68.80
76878;DHT22;65843;50.692;12.844;2023-11-18T04:59:43;10.20;69.00
76878;DHT22;65843;50.692;12.844;2023-11-18T05:00:44;10.20;68.90
76878;DHT22;65843;50.692;12.844;2023-11-18T05:01:45;10.20;68.80
76878;DHT22;65843;50.692;12.844;2023-11-18T05:02:47;10.20;68.90
76878;DHT22;65843;50.692;12.844;2023-11-18T05:03:48;10.20;68.80
76878;DHT22;65843;50.692;12.844;2023-11-18T05:04:49;10.20;68.60
76878;DHT22;65843;50.692;12.844;2023-11-18T05:05:50;10.20;68.80
76878;DHT22;65843;50.692;12.844;2023-11-18T05:06:51;10.20;68.70
76878;DHT22;65843;50.692;12.844;2023-11-18T05:07:52;10.20;68.70
76878;DHT22;65843;50.692;12.844;2023-11-18T05:08:53;10.20;68.70
76878;DHT22;65843;50.692;12.844;2023-11-18T05:09:55;10.20;68.80
76878;DHT22;65843;50.692;12.844;2023-11-18T05:10:56;10.20;68.80
76878;DHT22;65843;50.692;12.844;2023-11-18T05:11:59;10.20;68.90
76878;DHT22;65843;50.692;12.844;2023-11-18T05:13:00;10.20;68.80
76878;DHT22;65843;50.692;12.844;2023-11-18T05:14:01;10.20;68.70
76878;DHT22;65843;50.692;12.844;2023-11-18T05:15:04;10.30;68.20
76878;DHT22;65843;50.692;12.844;2023-11-18T05:16:05;10.20;68.20
76878;DHT22;65843;50.692;12.844;2023-11-18T05:17:06;10.20;68.30
76878;DHT22;65843;50.692;12.844;2023-11-18T05:18:07;10.20;68.40
76878;DHT22;65843;50.692;12.844;2023-11-18T05:19:12;10.20;68.20
76878;DHT22;65843;50.692;12.844;2023-11-18T05:20:13;10.20;68.40
76878;DHT22;65843;50.692;12.844;2023-11-18T05:21:14;10.20;68.40
76878;DHT22;65843;50.692;12.844;2023-11-18T05:22:15;10.20;68.50
76878;DHT22;65843;50.692;12.844;2023-11-18T05:23:16;10.10;68.60
76878;DHT22;65843;50.692;12.844;2023-11-18T05:24:17;10.20;68.60
76878;DHT22;65843;50.692;12.844;2023-11-18T05:25:18;10.10;68.70
76878;DHT22;65843;50.692;12.844;2023-11-18T05:26:20;10.10;68.90
76878;DHT22;65843;50.692;12.844;2023-11-18T05:27:21;10.10;69.00
76878;DHT22;65843;50.692;12.844;2023-11-18T05:28:22;10.20;68.90
76878;DHT22;65843;50.692;12.844;2023-11-18T05:29:23;10.10;68.90
76878;DHT22;65843;50.692;12.844;2023-11-18T05:30:24;10.10;69.00
76878;DHT22;65843;50.692;12.844;2023-11-18T05:31:26;10.20;68.90
76878;DHT22;65843;50.692;12.844;2023-11-18T05:32:27;10.10;68.70
76878;DHT22;65843;50.692;12.844;2023-11-18T05:33:28;10.10;68.90
76878;DHT22;65843;50.692;12.844;2023-11-18T05:34:29;10.10;68.70
76878;DHT22;65843;50.692;12.844;2023-11-18T05:35:30;10.10;68.80
76878;DHT22;65843;50.692;12.844;2023-11-18T05:36:32;10.10;68.70
76878;DHT22;65843;50.692;12.844;2023-11-18T05:37:38;10.10;68.70
76878;DHT22;65843;50.692;12.844;2023-11-18T05:38:41;10.10;68.70
76878;DHT22;65843;50.692;12.844;2023-11-18T05:39:43;10.10;68.70
76878;DHT22;65843;50.692;12.844;2023-11-18T05:40:46;10.10;68.80
76878;DHT22;65843;50.692;12.844;2023-11-18T05:42:01;10.10;68.80
76878;DHT22;65843;50.692;12.844;2023-11-18T05:43:02;10.10;68.70
76878;DHT22;65843;50.692;12.844;2023-11-18T05:44:07;10.10;68.70
76878;DHT22;65843;50.692;12.844;2023-11-18T05:45:10;10.10;68.80
76878;DHT22;65843;50.692;12.844;2023-11-18T05:46:18;10.10;68.90
76878;DHT22;65843;50.692;12.844;2023-11-18T05:47:21;10.10;69.00
76878;DHT22;65843;50.692;12.844;2023-11-18T05:48:22;10.10;69.10
76878;DHT22;65843;50.692;12.844;2023-11-18T05:49:23;10.10;69.00
76878;DHT22;65843;50.692;12.844;2023-11-18T05:50:25;10.10;69.20
76878;DHT22;65843;50.692;12.844;2023-11-18T05:51:26;10.10;69.00
76878;DHT22;65843;50.692;12.844;2023-11-18T05:52:27;10.10;69.10
76878;DHT22;65843;50.692;12.844;2023-11-18T05:53:28;10.10;69.10
76878;DHT22;65843;50.692;12.844;2023-11-18T05:54:29;10.10;69.10
76878;DHT22;65843;50.692;12.844;2023-11-18T05:55:31;10.20;69.10
76878;DHT22;65843;50.692;12.844;2023-11-18T05:56:32;10.20;69.00
76878;DHT22;65843;50.692;12.844;2023-11-18T05:57:33;10.20;69.00
76878;DHT22;65843;50.692;12.844;2023-11-18T05:58:34;10.20;69.00
76878;DHT22;65843;50.692;12.844;2023-11-18T05:59:35;10.20;68.90
76878;DHT22;65843;50.692;12.844;2023-11-18T06:00:36;10.20;68.80
76878;DHT22;65843;50.692;12.844;2023-11-18T06:01:37;10.20;68.80
76878;DHT22;65843;50.692;12.844;2023-11-18T06:02:38;10.20;68.50
76878;DHT22;65843;50.692;12.844;2023-11-18T06:03:41;10.20;68.60
76878;DHT22;65843;50.692;12.844;2023-11-18T06:04:42;10.20;68.60
76878;DHT22;65843;50.692;12.844;2023-11-18T06:05:43;10.20;68.60
76878;DHT22;65843;50.692;12.844;2023-11-18T06:06:44;10.20;68.50
76878;DHT22;65843;50.692;12.844;2023-11-18T06:07:45;10.20;68.60
76878;DHT22;65843;50.692;12.844;2023-11-18T06:08:48;10.20;68.60
76878;DHT22;65843;50.692;12.844;2023-11-18T06:09:49;10.20;68.60
76878;DHT22;65843;50.692;12.844;2023-11-18T06:10:50;10.20;68.50
76878;DHT22;65843;50.692;12.844;2023-11-18T06:11:57;10.20;68.60
76878;DHT22;65843;50.692;12.844;2023-11-18T06:12:57;10.20;68.50
76878;DHT22;65843;50.692;12.844;2023-11-18T06:13:58;10.20;68.60
76878;DHT22;65843;50.692;12.844;2023-11-18T06:14:59;10.20;68.60
76878;DHT22;65843;50.692;12.844;2023-11-18T06:16:01;10.20;68.70
76878;DHT22;65843;50.692;12.844;2023-11-18T06:17:03;10.10;69.00
76878;DHT22;65843;50.692;12.844;2023-11-18T06:18:04;10.10;68.90
76878;DHT22;65843;50.692;12.844;2023-11-18T06:19:05;10.10;69.00
76878;DHT22;65843;50.692;12.844;2023-11-18T06:20:07;10.10;69.00
76878;DHT22;65843;50.692;12.844;2023-11-18T06:21:09;10.10;68.90
76878;DHT22;65843;50.692;12.844;2023-11-18T06:22:10;10.10;68.80
76878;DHT22;65843;50.692;12.844;2023-11-18T06:23:11;10.10;68.70
76878;DHT22;65843;50.692;12.844;2023-11-18T06:24:16;10.10;68.70
76878;DHT22;65843;50.692;12.844;2023-11-18T06:25:19;10.10;68.70
76878;DHT22;65843;50.692;12.844;2023-11-18T06:26:20;10.10;68.70
76878;DHT22;65843;50.692;12.844;2023-11-18T06:27:22;10.10;68.70